Green Bay, WI (54303)

6:57 AM CST on February 27, 2015 (GMT -0600)
Fox 11 | Change Station
CLOSE
Current Station
Personal Weather Station
Location: Green Bay, WI
Elevation: 617 ft
Nearby Weather Stations
Active Advisory: Special Statement

Elev 617 ft 44.50 °N, 88.05 °W | Updated 10 seconds ago

Clear
Clear
-1.9 °F
Feels Like -14 °F
N
6.0
Wind Variable Wind from East
Gusts 6.0 mph

Today
High -- | Low -- °F
--% Chance of Precip.
Yesterday
High -- | Low -- °F
Precip. -- in
6:33 AM 5:37 PM
Waxing Gibbous, 68% visible
Pressure 30.53 in
Visibility 10.0 miles
Clouds Clear
Windchill -14 °F
Dew Point -10 °F
Humidity 73%
Rainfall 0.14 in
Snow Depth Not available.
UV 0 out of 12
Pollen .30 out of 12
Air Quality Not available.
Flu Activity Not available.
METAR KGRB 271153Z 28004KT 10SM CLR M19/M23 A3046 RMK AO2 SLP336 T11891228 11167 21189 53013

More Conditions Fewer Conditions

Pressure 30.53 in
Visibility 10.0 miles
Clouds Clear
Windchill -14 °F
Dew Point -10 °F
Humidity 73%
Rainfall 0.14 in
Snow Depth Not available.
UV 0 out of 12
Pollen .30 out of 12
Air Quality Not available.
Flu Activity Not available.
METAR KGRB 271153Z 28004KT 10SM CLR M19/M23 A3046 RMK AO2 SLP336 T11891228 11167 21189 53013

More Conditions Fewer Conditions

10-Day Weather Forecast

Almanac

Astronomy

Feb. 27, 2015 Rise Set
Actual Time
Civil Twilight
Nautical Twilight
Astronomical Twilight
Moon
Length of Visible Light
Length of Day
Tomorrow will be .
, % of the Moon is Illuminated

Today's Extremes

State Highs State Lows

Community

WunderPhotos

Upload Photos

1,800,667 photos uploaded!

WunderBlogs® & News

Nearby

Air Quality

  Air Quality AQ Index Pollutant
Not available.

Snow Depth

Station Depth Elevation

Earthquake Activity

City Distance Mag. Time & Date
Minimum magnitude displayed is 2.5.

Coastal Water Temperatures

Place Temperature

Nearby Weather Stations

Special Statement
Statement as of 2:49 AM CST on February 27, 2015

... Very cold temperatures early this morning...

Frigid Arctic air will continue to reside over the area this
morning. Temperatures will be as cold as 15 below to 25 below
zero over north central Wisconsin... 5 below to 15 below zero in
central and northeast Wisconsin... and around 5 below zero in
east central Wisconsin. Although winds will be calm in some of
the coldest spots... occasional west winds around 5 mph will
produce pockets of wind chills as cold as 15 below to 30 below
zero.

If proper precautions are not taken... temperatures and wind chills
this low can result in frostbite on exposed skin in 30 minutes.
Be sure to dress appropriately if heading outside this morning.